Time;durP1;ratioP1;P1;durP2;ratioP2;P2;SDS_P1;SDS_P2;PMS_P1;PMS_P2;Temp;Humidity;BMP_temperature;BMP_pressure;BME280_temperature;BME280_humidity;BME280_pressure;Samples;Min_cycle;Max_cycle;Signal;HPM_P1;HPM_P2
2022/09/24 00:01:35;;;;;;;9.32;5.70;;;13.00;99.90;;;-144.05;63.94;125687.94;5033322;28;20017;-82
2022/09/24 00:04:07;;;;;;;8.80;5.28;;;13.10;99.90;;;-144.05;64.35;125687.94;5032480;28;20231;-83
2022/09/24 00:06:43;;;;;;;10.20;5.60;;;13.00;99.90;;;-144.05;64.26;125687.94;5032239;28;20026;-82
2022/09/24 00:09:12;;;;;;;9.13;5.43;;;13.10;99.90;;;-144.05;64.68;125687.94;5033269;28;20036;-83
2022/09/24 00:11:39;;;;;;;12.13;5.90;;;13.00;99.90;;;-144.05;64.59;125687.94;5033125;28;20420;-82
2022/09/24 00:14:06;;;;;;;11.57;5.97;;;13.00;99.90;;;-144.05;64.92;125687.94;5034028;28;20396;-83
2022/09/24 00:16:33;;;;;;;8.25;5.60;;;12.90;99.90;;;-144.05;65.29;125687.94;5033213;28;20124;-82
2022/09/24 00:19:02;;;;;;;7.97;5.75;;;12.90;99.90;;;-144.05;65.40;125687.94;5031198;28;20037;-83
2022/09/24 00:21:36;;;;;;;11.98;5.85;;;12.80;99.90;;;-144.05;65.65;125687.94;5033267;28;20469;-83
2022/09/24 00:26:48;;;;;;;8.73;5.10;;;12.80;99.90;;;-144.05;65.97;125687.94;5031766;28;20033;-82
2022/09/24 00:27:04;;;;;;;7.07;5.13;;;12.70;99.90;;;-144.05;65.99;125687.94;5032997;28;20040;-81
2022/09/24 00:29:34;;;;;;;9.88;5.97;;;12.70;99.90;;;-144.05;66.18;125687.94;5032975;28;20435;-81
2022/09/24 00:32:01;;;;;;;9.98;6.25;;;12.70;99.90;;;-144.05;66.28;125687.94;5033066;28;20029;-83
2022/09/24 00:34:28;;;;;;;12.02;6.45;;;12.70;99.90;;;-144.05;66.34;125687.94;5033551;28;20036;-84
2022/09/24 00:36:54;;;;;;;12.05;6.05;;;12.70;99.90;;;-144.05;66.17;125687.94;5032036;28;20178;-83
2022/09/24 00:39:20;;;;;;;7.72;5.82;;;12.70;99.90;;;-144.05;66.20;125687.94;5031666;28;20116;-83
2022/09/24 00:41:47;;;;;;;15.18;6.72;;;12.70;99.90;;;-144.05;66.19;125687.94;5033303;28;20032;-82
2022/09/24 00:44:44;;;;;;;11.70;5.90;;;12.70;99.90;;;-144.05;65.78;125687.94;5031940;28;20048;-84
2022/09/24 00:47:24;;;;;;;;;;;12.80;99.90;;;-144.05;66.24;125687.94;5032495;28;20029;-83
2022/09/24 00:49:55;;;;;;;11.50;5.57;;;12.90;99.90;;;-144.05;65.53;125687.94;5031518;28;19909;-82
2022/09/24 00:52:21;;;;;;;8.38;5.75;;;13.00;99.90;;;-144.05;65.55;125687.94;5031771;28;20061;-80
2022/09/24 00:54:48;;;;;;;9.18;5.53;;;13.00;99.90;;;-144.05;65.53;125687.94;5033120;28;20041;-83
2022/09/24 00:57:15;;;;;;;8.90;5.28;;;13.00;99.90;;;-144.05;65.73;125687.94;5033157;28;20028;-82
2022/09/24 00:59:43;;;;;;;11.68;7.10;;;13.00;99.90;;;-144.05;66.09;125687.94;5032934;28;20119;-82
2022/09/24 01:02:09;;;;;;;12.38;7.78;;;13.00;99.90;;;-144.05;66.27;125687.94;5032372;28;20722;-85
2022/09/24 01:04:35;;;;;;;12.60;7.32;;;13.00;99.90;;;-144.05;66.28;125687.94;5031252;28;20120;-85
2022/09/24 01:07:01;;;;;;;13.45;8.38;;;13.10;99.90;;;-144.05;66.41;125687.94;5032933;28;20172;-82
2022/09/24 01:09:27;;;;;;;13.85;7.63;;;13.10;99.90;;;-144.05;66.59;125687.94;5031205;28;20124;-82
2022/09/24 01:12:30;;;;;;;10.45;6.93;;;13.10;99.90;;;-144.05;66.26;125687.94;5031849;28;20044;-82
2022/09/24 01:15:47;;;;;;;14.27;7.40;;;13.10;99.90;;;-144.05;66.34;125687.94;5036367;28;20090;-81
2022/09/24 01:18:49;;;;;;;11.52;6.88;;;13.10;99.90;;;-144.05;66.51;125687.94;5014055;28;20030;-82
2022/09/24 01:21:52;;;;;;;9.15;6.10;;;13.10;99.90;;;-144.05;66.36;125687.94;5036809;28;20025;-82
2022/09/24 01:24:36;;;;;;;10.48;5.97;;;13.10;99.90;;;-144.05;66.74;125687.94;5036643;28;20059;-82
2022/09/24 01:27:41;;;;;;;11.00;6.45;;;13.10;99.90;;;-144.05;66.87;125687.94;5037217;28;20677;-83
2022/09/24 01:30:14;;;;;;;10.15;7.55;;;13.10;99.90;;;-144.05;66.98;125687.94;5039551;28;20032;-83
2022/09/24 01:33:00;;;;;;;10.80;6.63;;;13.10;99.90;;;-144.05;67.43;125687.94;5039635;28;20064;-85
2022/09/24 01:35:58;;;;;;;12.98;7.40;;;13.10;99.90;;;-144.05;67.72;125687.94;5041584;28;20034;-85
2022/09/24 01:38:33;;;;;;;11.60;7.40;;;13.10;99.90;;;-144.05;67.83;125687.94;5041163;28;20316;-83
2022/09/24 01:41:03;;;;;;;11.98;7.88;;;13.10;99.90;;;-144.05;68.54;125687.94;5041639;28;20443;-82
2022/09/24 01:43:29;;;;;;;13.05;7.63;;;13.10;99.90;;;-144.05;68.69;125687.94;5040130;28;20065;-84
2022/09/24 01:46:01;;;;;;;12.77;7.05;;;13.00;99.90;;;-144.05;68.49;125687.94;5041562;28;20112;-83
2022/09/24 01:48:29;;;;;;;12.52;6.55;;;13.00;99.90;;;-144.05;68.37;125687.94;5041635;28;20626;-82
2022/09/24 01:51:43;;;;;;;10.32;6.72;;;13.00;99.90;;;-144.05;68.25;125687.94;5041254;28;20093;-80
2022/09/24 01:54:23;;;;;;;13.35;6.50;;;13.00;99.90;;;-144.05;68.28;125687.94;5041059;28;20041;-82
2022/09/24 01:57:18;;;;;;;12.80;7.95;;;13.00;99.90;;;-144.05;68.40;125687.94;5039343;28;20555;-83
2022/09/24 02:00:08;;;;;;;10.90;6.78;;;13.00;99.90;;;-144.05;68.67;125687.94;5041355;28;20081;-85
2022/09/24 02:03:13;;;;;;;14.07;5.40;;;13.00;99.90;;;-144.05;68.54;125687.94;5039903;28;20053;-84
2022/09/24 02:06:16;;;;;;;12.73;6.30;;;13.00;99.90;;;-144.05;68.69;125687.94;5040668;28;20075;-83
2022/09/24 02:08:47;;;;;;;11.23;6.50;;;13.00;99.90;;;-144.05;68.76;125687.94;5041702;28;20431;-84
2022/09/24 02:11:22;;;;;;;11.48;6.55;;;12.90;99.90;;;-144.05;68.97;125687.94;5041244;28;20056;-81
2022/09/24 02:14:13;;;;;;;9.43;6.40;;;12.90;99.90;;;-144.05;69.43;125687.94;5041352;28;20064;-83
2022/09/24 02:16:48;;;;;;;11.27;7.45;;;12.90;99.90;;;-144.05;69.46;125687.94;5040050;28;20117;-83
2022/09/24 02:19:27;;;;;;;12.38;7.78;;;12.90;99.90;;;-144.05;69.90;125687.94;5042041;28;20040;-81
2022/09/24 02:21:54;;;;;;;9.68;7.15;;;12.90;99.90;;;-144.05;70.24;125687.94;5041156;28;20032;-84
2022/09/24 02:24:33;;;;;;;14.27;8.30;;;12.90;99.90;;;-144.05;70.54;125687.94;5042001;28;20076;-81
2022/09/24 02:26:59;;;;;;;9.90;6.45;;;12.90;99.90;;;-144.05;70.82;125687.94;5042201;28;20048;-82
2022/09/24 02:29:25;;;;;;;11.77;7.10;;;12.90;99.90;;;-144.05;71.22;125687.94;5042055;28;20049;-82
2022/09/24 02:31:58;;;;;;;10.65;7.00;;;12.90;99.90;;;-144.05;71.38;125687.94;5042247;28;20036;-84
2022/09/24 02:34:39;;;;;;;10.80;6.88;;;12.90;99.90;;;-144.05;71.60;125687.94;5042726;28;20049;-81
2022/09/24 02:37:13;;;;;;;10.57;6.18;;;12.90;99.90;;;-144.05;71.72;125687.94;5042076;28;20029;-83
2022/09/24 02:39:40;;;;;;;13.10;7.05;;;12.90;99.90;;;-144.05;71.76;125687.94;5041911;28;20084;-83
2022/09/24 02:42:11;;;;;;;12.18;7.40;;;12.80;99.90;;;-144.05;71.91;125687.94;5042253;28;20060;-82
2022/09/24 02:44:37;;;;;;;10.88;7.38;;;12.80;99.90;;;-144.05;72.03;125687.94;5042887;28;20060;-83
2022/09/24 02:47:05;;;;;;;10.75;7.97;;;12.80;99.90;;;-144.05;72.24;125687.94;5055754;28;20056;-79
2022/09/24 02:49:32;;;;;;;11.52;8.00;;;12.80;99.90;;;-144.05;72.49;125687.94;5056178;28;20048;-82
2022/09/24 02:51:58;;;;;;;11.85;7.72;;;12.80;99.90;;;-144.05;72.58;125687.94;5048001;28;20531;-85
2022/09/24 02:54:24;;;;;;;9.70;6.82;;;12.70;99.90;;;-144.05;72.83;125687.94;5039737;28;20431;-83
2022/09/24 02:56:51;;;;;;;13.15;7.43;;;12.70;99.90;;;-144.05;73.15;125687.94;5040365;28;20045;-83
2022/09/24 02:59:18;;;;;;;11.73;7.78;;;12.70;99.90;;;-144.05;73.46;125687.94;5043296;28;20109;-83
2022/09/24 03:01:45;;;;;;;12.88;7.68;;;12.60;99.90;;;-144.05;73.57;125687.94;5043951;28;20025;-84
2022/09/24 03:04:12;;;;;;;13.50;8.02;;;12.60;99.90;;;-144.05;73.75;125687.94;5046004;28;20026;-84
2022/09/24 03:06:38;;;;;;;15.02;8.25;;;12.60;99.90;;;-144.05;74.21;125687.94;5044227;28;20132;-85
2022/09/24 03:09:04;;;;;;;15.68;10.90;;;12.60;99.90;;;-144.05;74.47;125687.94;5040592;28;20540;-83
2022/09/24 03:11:31;;;;;;;14.65;9.10;;;12.60;99.90;;;-144.05;74.54;125687.94;5041118;28;20029;-83
2022/09/24 03:13:59;;;;;;;19.98;10.07;;;12.60;99.90;;;-144.05;74.81;125687.94;5041720;28;20026;-85
2022/09/24 03:16:25;;;;;;;16.10;9.88;;;12.60;99.90;;;-144.05;74.45;125687.94;5043192;28;20022;-83
2022/09/24 03:18:51;;;;;;;21.38;10.10;;;12.60;99.90;;;-144.05;74.63;125687.94;5041922;28;20034;-83
2022/09/24 03:21:21;;;;;;;13.93;9.63;;;12.60;99.90;;;-144.05;74.45;125687.94;5042440;28;20035;-82
2022/09/24 03:23:47;;;;;;;20.58;11.10;;;12.70;99.90;;;-144.05;74.34;125687.94;5044565;28;20028;-84
2022/09/24 03:26:14;;;;;;;18.27;10.65;;;12.80;99.90;;;-144.05;74.05;125687.94;5049504;28;20096;-84
2022/09/24 03:28:40;;;;;;;15.35;9.65;;;12.70;99.90;;;-144.05;73.77;125687.94;5049940;28;20044;-84
2022/09/24 03:31:07;;;;;;;16.98;10.82;;;12.70;99.90;;;-144.05;73.58;125687.94;5049137;28;20040;-83
2022/09/24 03:33:44;;;;;;;17.15;10.07;;;12.70;99.90;;;-144.05;73.54;125687.94;5049007;28;20026;-83
2022/09/24 03:36:22;;;;;;;15.88;10.95;;;12.80;99.90;;;-144.05;73.37;125687.94;5049890;28;20025;-82
2022/09/24 03:38:55;;;;;;;14.25;9.57;;;12.80;99.90;;;-144.05;73.15;125687.94;5043543;28;20464;-81
2022/09/24 03:41:24;;;;;;;23.10;11.43;;;12.80;99.90;;;-144.05;73.41;125687.94;5037283;28;20115;-81
2022/09/24 03:43:50;;;;;;;17.45;10.50;;;12.80;99.90;;;-144.05;73.27;125687.94;5036381;28;20396;-81
2022/09/24 03:46:16;;;;;;;16.60;10.48;;;12.80;99.90;;;-144.05;73.28;125687.94;5037520;28;20057;-81
2022/09/24 03:48:43;;;;;;;14.43;10.13;;;12.80;99.90;;;-144.05;73.15;125687.94;5037236;28;20480;-81
2022/09/24 03:51:17;;;;;;;16.77;10.57;;;12.80;99.90;;;-144.05;73.28;125687.94;5035384;28;20041;-82
2022/09/24 03:53:45;;;;;;;18.33;11.75;;;12.80;99.90;;;-144.05;73.94;125687.94;5040795;28;20045;-83
2022/09/24 03:56:12;;;;;;;24.63;13.20;;;12.80;99.90;;;-144.05;74.09;125687.94;5067270;28;20022;-83
2022/09/24 03:58:38;;;;;;;18.38;12.25;;;12.80;99.90;;;-144.05;74.47;125687.94;5043835;28;20025;-82
2022/09/24 04:01:11;;;;;;;21.23;13.50;;;12.80;99.90;;;-144.05;74.62;125687.94;5040991;28;20055;-81
2022/09/24 04:03:39;;;;;;;22.48;13.18;;;12.80;99.90;;;-144.05;74.96;125687.94;5041368;28;20025;-83
2022/09/24 04:06:06;;;;;;;24.08;14.10;;;12.80;99.90;;;-144.05;75.06;125687.94;5038487;28;20441;-82
2022/09/24 04:08:32;;;;;;;24.45;12.30;;;12.80;99.90;;;-144.05;75.39;125687.94;5040978;28;20033;-80
2022/09/24 04:10:58;;;;;;;18.65;13.23;;;12.80;99.90;;;-144.05;75.88;125687.94;5038397;28;20033;-81
2022/09/24 04:13:25;;;;;;;25.73;15.13;;;12.80;99.90;;;-144.05;76.76;125687.94;5033754;28;20068;-82
2022/09/24 04:15:50;;;;;;;22.23;15.25;;;12.70;99.90;;;-144.05;76.74;125687.94;5034392;28;20154;-81
2022/09/24 04:18:17;;;;;;;25.60;16.60;;;12.70;99.90;;;-144.05;78.06;125687.94;5033159;28;20519;-79
2022/09/24 04:20:44;;;;;;;33.25;16.92;;;12.70;99.90;;;-144.05;77.46;125687.94;5035026;28;20113;-81
2022/09/24 04:23:10;;;;;;;27.83;19.15;;;12.70;99.90;;;-144.05;78.27;125687.94;5034913;28;20044;-81
2022/09/24 04:25:36;;;;;;;29.10;17.70;;;12.70;99.90;;;-144.05;78.24;125687.94;5033708;28;20446;-82
2022/09/24 04:28:06;;;;;;;27.42;17.75;;;12.70;99.90;;;-144.05;78.45;125687.94;5036753;28;20060;-83
2022/09/24 04:30:34;;;;;;;26.42;18.13;;;12.70;99.90;;;-144.05;78.30;125687.94;5036413;28;20061;-82
2022/09/24 04:33:01;;;;;;;27.42;19.17;;;12.70;99.90;;;-144.05;78.40;125687.94;5036481;28;20358;-82
2022/09/24 04:35:31;;;;;;;27.17;18.27;;;12.60;99.90;;;-144.05;78.54;125687.94;5036194;28;20034;-81
2022/09/24 04:37:58;;;;;;;27.30;18.48;;;12.60;99.90;;;-144.05;78.65;125687.94;5036640;28;20097;-81
2022/09/24 04:40:25;;;;;;;23.55;16.80;;;12.60;99.90;;;-144.05;78.89;125687.94;5033384;28;20025;-81
2022/09/24 04:42:51;;;;;;;27.63;17.55;;;12.60;99.90;;;-144.05;79.11;125687.94;5035372;28;20500;-82
2022/09/24 04:45:18;;;;;;;24.25;16.73;;;12.60;99.90;;;-144.05;79.17;125687.94;5033635;28;20382;-81
2022/09/24 04:47:54;;;;;;;25.55;17.05;;;12.50;99.90;;;-144.05;79.40;125687.94;5035894;28;20046;-83
2022/09/24 04:50:21;;;;;;;28.77;19.42;;;12.50;99.90;;;-144.05;80.04;125687.94;5035791;28;20485;-82
2022/09/24 04:52:47;;;;;;;25.27;17.02;;;12.50;99.90;;;-144.05;79.72;125687.94;5034761;28;20097;-82
2022/09/24 04:55:13;;;;;;;21.10;14.68;;;12.50;99.90;;;-144.05;79.76;125687.94;5032890;28;20061;-81
2022/09/24 04:57:40;;;;;;;26.75;17.05;;;12.40;99.90;;;-144.05;79.97;125687.94;5034883;28;20026;-82
2022/09/24 05:00:16;;;;;;;23.02;14.88;;;12.40;99.90;;;-144.05;80.16;125687.94;5034672;28;20022;-81
2022/09/24 05:02:44;;;;;;;22.98;14.88;;;12.40;99.90;;;-144.05;80.06;125687.94;5035211;28;20030;-80
2022/09/24 05:05:12;;;;;;;24.67;16.50;;;12.30;99.90;;;-144.05;80.64;125687.94;5049419;28;20511;-82
2022/09/24 05:07:38;;;;;;;30.55;18.08;;;12.20;99.90;;;-144.05;81.09;125687.94;5036252;28;20101;-82
2022/09/24 05:10:06;;;;;;;28.63;17.83;;;12.30;99.90;;;-144.05;80.99;125687.94;5034921;28;20049;-80
2022/09/24 05:12:34;;;;;;;35.85;21.15;;;12.20;99.90;;;-144.05;81.00;125687.94;5033098;28;20030;-82
2022/09/24 05:15:00;;;;;;;34.75;21.02;;;12.20;99.90;;;-144.05;81.16;125687.94;5033545;28;20037;-82
2022/09/24 05:17:25;;;;;;;37.97;22.58;;;12.20;99.90;;;-144.05;81.89;125687.94;5034764;28;20534;-83
2022/09/24 05:19:52;;;;;;;31.67;20.77;;;12.30;99.90;;;-144.05;81.37;125687.94;5035112;28;20029;-81
2022/09/24 05:22:19;;;;;;;32.45;19.63;;;12.30;99.90;;;-144.05;81.36;125687.94;5035577;28;20033;-82
2022/09/24 05:24:44;;;;;;;28.65;17.65;;;12.30;99.90;;;-144.05;81.42;125687.94;5034030;28;20112;-79
2022/09/24 05:27:10;;;;;;;33.38;21.60;;;12.30;99.90;;;-144.05;81.67;125687.94;5036241;28;20100;-82
2022/09/24 05:29:41;;;;;;;26.70;15.68;;;12.30;99.90;;;-144.05;81.60;125687.94;5034810;28;20468;-82
2022/09/24 05:32:16;;;;;;;30.27;19.70;;;12.30;99.90;;;-144.05;81.86;125687.94;5033905;28;20101;-80
2022/09/24 05:34:44;;;;;;;29.27;17.77;;;12.30;99.90;;;-144.05;81.99;125687.94;5034339;28;20147;-81
2022/09/24 05:37:13;;;;;;;27.83;17.02;;;12.20;99.90;;;-144.05;81.84;125687.94;5032127;28;20040;-81
2022/09/24 05:39:38;;;;;;;29.17;18.80;;;12.20;99.90;;;-144.05;82.02;125687.94;5032382;28;20025;-82
2022/09/24 05:42:08;;;;;;;33.92;20.58;;;12.10;99.90;;;-144.05;81.93;125687.94;5032661;28;20510;-82
2022/09/24 05:44:35;;;;;;;35.65;20.35;;;12.10;99.90;;;-144.05;81.62;125687.94;5036198;28;20518;-83
2022/09/24 05:47:01;;;;;;;32.92;19.48;;;12.10;99.90;;;-144.05;81.55;125687.94;5034697;28;20104;-81
2022/09/24 05:49:26;;;;;;;30.50;19.25;;;12.10;99.90;;;-144.05;81.47;125687.94;5033922;28;20060;-81
2022/09/24 05:51:52;;;;;;;27.27;17.13;;;12.10;99.90;;;-144.05;81.20;125687.94;5034452;28;20033;-81
2022/09/24 05:54:18;;;;;;;25.75;16.20;;;12.20;99.90;;;-144.05;81.02;125687.94;5032664;28;20029;-81
2022/09/24 05:56:45;;;;;;;29.52;17.45;;;12.20;99.90;;;-144.05;81.10;125687.94;5033808;28;20551;-83
2022/09/24 05:59:12;;;;;;;25.77;17.20;;;12.20;99.90;;;-144.05;80.93;125687.94;5033377;28;20105;-79
2022/09/24 06:01:38;;;;;;;24.92;15.68;;;12.20;99.90;;;-144.05;80.60;125687.94;5035397;28;20029;-81
2022/09/24 06:04:04;;;;;;;24.27;15.63;;;12.30;99.90;;;-144.05;80.59;125687.94;5033380;28;20049;-81
2022/09/24 06:06:30;;;;;;;26.45;15.60;;;12.30;99.90;;;-144.05;80.46;125687.94;5033593;28;20061;-81
2022/09/24 06:08:56;;;;;;;24.23;17.05;;;12.30;99.90;;;-144.05;80.29;125687.94;5034759;28;20124;-82
2022/09/24 06:11:22;;;;;;;27.23;17.77;;;12.30;99.90;;;-144.05;80.00;125687.94;5035739;28;20514;-82
2022/09/24 06:13:50;;;;;;;27.30;17.27;;;12.30;99.90;;;-144.05;79.80;125687.94;5033633;28;20117;-82
2022/09/24 06:16:17;;;;;;;24.38;15.38;;;12.30;99.90;;;-144.05;79.89;125687.94;5034772;28;20139;-78
2022/09/24 06:18:44;;;;;;;21.33;13.73;;;12.30;99.90;;;-144.05;79.57;125687.94;5036962;28;20021;-79
2022/09/24 06:21:16;;;;;;;22.77;15.02;;;12.40;99.90;;;-144.05;79.40;125687.94;5038183;28;20401;-80
2022/09/24 06:23:44;;;;;;;23.45;14.88;;;12.40;99.90;;;-144.05;79.04;125687.94;5037639;28;20025;-80
2022/09/24 06:26:13;;;;;;;24.70;14.85;;;12.40;99.90;;;-144.05;79.01;125687.94;5036543;28;20029;-79
2022/09/24 06:28:40;;;;;;;19.48;13.48;;;12.50;99.90;;;-144.05;78.90;125687.94;5037171;28;20030;-83
2022/09/24 06:31:10;;;;;;;17.58;12.10;;;12.50;99.90;;;-144.05;78.80;125687.94;5036663;28;20033;-80
2022/09/24 06:33:37;;;;;;;18.88;13.43;;;12.60;99.90;;;-144.05;78.88;125687.94;5036048;28;20369;-80
2022/09/24 06:36:04;;;;;;;22.88;12.85;;;12.60;99.90;;;-144.05;78.96;125687.94;5036778;28;20029;-79
2022/09/24 06:38:30;;;;;;;18.65;12.30;;;12.60;99.90;;;-144.05;78.80;125687.94;5036363;28;20066;-81
2022/09/24 06:41:03;;;;;;;20.27;13.07;;;12.70;99.90;;;-144.05;78.62;125687.94;5035330;28;20043;-81
2022/09/24 06:43:32;;;;;;;22.85;13.32;;;12.70;99.90;;;-144.05;78.35;125687.94;5035095;28;20381;-82
2022/09/24 06:45:59;;;;;;;27.33;13.48;;;12.70;99.90;;;-144.05;78.13;125687.94;5035339;28;20091;-81
2022/09/24 06:48:27;;;;;;;18.70;12.23;;;12.70;99.90;;;-144.05;78.05;125687.94;5036817;28;20036;-82
2022/09/24 06:50:55;;;;;;;20.13;13.52;;;12.80;99.90;;;-144.05;77.73;125687.94;5034139;28;20492;-82
2022/09/24 06:53:21;;;;;;;25.75;14.25;;;12.80;99.90;;;-144.05;77.37;125687.94;5035631;28;20044;-81
2022/09/24 06:55:47;;;;;;;25.73;13.95;;;12.90;99.90;;;-144.05;77.19;125687.94;5035973;28;20087;-81
2022/09/24 06:58:19;;;;;;;20.83;14.57;;;12.90;99.90;;;-144.05;76.83;125687.94;5035884;28;20079;-80
2022/09/24 07:01:01;;;;;;;26.95;16.30;;;13.00;99.90;;;-144.05;76.70;125687.94;5035095;28;20080;-80
2022/09/24 07:03:31;;;;;;;22.10;14.70;;;13.00;99.90;;;-144.05;76.56;125687.94;5034617;28;20037;-83
2022/09/24 07:06:03;;;;;;;24.88;14.82;;;13.10;99.90;;;-144.05;76.24;125687.94;5036747;28;20037;-81
2022/09/24 07:08:30;;;;;;;20.83;14.00;;;13.10;99.90;;;-144.05;76.12;125687.94;5042111;28;20095;-81
2022/09/24 07:10:57;;;;;;;24.80;15.13;;;13.20;99.90;;;-144.05;75.70;125687.94;5053436;28;20057;-80
2022/09/24 07:13:23;;;;;;;24.25;15.57;;;13.30;99.90;;;-144.05;75.52;125687.94;5076838;23;20155;-78
2022/09/24 07:15:51;;;;;;;21.63;14.23;;;13.30;99.90;;;-144.05;74.87;125687.94;5057069;28;20088;-76
2022/09/24 07:18:19;;;;;;;24.25;14.68;;;13.30;99.90;;;-144.05;74.98;125687.94;5056674;28;20025;-79
2022/09/24 07:20:55;;;;;;;20.10;13.85;;;13.40;99.90;;;-144.05;74.80;125687.94;5059158;28;20522;-79
2022/09/24 07:23:22;;;;;;;24.38;13.65;;;13.50;99.90;;;-144.05;74.12;125687.94;5059599;28;20025;-80
2022/09/24 07:25:55;;;;;;;21.15;13.90;;;13.50;99.90;;;-144.05;73.88;125687.94;5057425;28;20056;-78
2022/09/24 07:28:20;;;;;;;21.02;13.52;;;13.50;99.90;;;-144.05;74.02;125687.94;5058957;28;20190;-80
2022/09/24 07:30:55;;;;;;;21.85;13.55;;;13.70;99.90;;;-144.05;73.58;125687.94;5059270;28;20518;-78
2022/09/24 07:33:20;;;;;;;23.48;14.30;;;13.80;99.90;;;-144.05;73.15;125687.94;5059426;28;20483;-77
2022/09/24 07:35:46;;;;;;;17.98;12.43;;;13.80;99.90;;;-144.05;72.86;125687.94;5060007;28;20032;-78
2022/09/24 07:38:12;;;;;;;18.55;13.07;;;13.90;99.90;;;-144.05;72.53;125687.94;5057859;28;20029;-76
2022/09/24 07:40:39;;;;;;;22.92;13.82;;;14.00;99.90;;;-144.05;72.34;125687.94;5059482;28;20084;-79
2022/09/24 07:43:12;;;;;;;18.65;13.13;;;14.00;99.90;;;-144.05;71.99;125687.94;5059982;28;20033;-77
2022/09/24 07:45:39;;;;;;;15.60;11.27;;;14.20;99.90;;;-144.05;72.06;125687.94;5058150;28;20029;-78
2022/09/24 07:48:07;;;;;;;21.23;12.82;;;14.30;99.90;;;-144.05;71.58;125687.94;5059387;28;20056;-77
2022/09/24 07:50:39;;;;;;;19.05;13.40;;;14.40;99.90;;;-144.05;70.50;125687.94;5056512;28;20507;-76
2022/09/24 07:53:05;;;;;;;18.38;13.18;;;14.50;99.90;;;-144.05;70.66;125687.94;5056347;28;20036;-77
2022/09/24 07:55:31;;;;;;;17.13;11.15;;;14.60;99.90;;;-144.05;70.04;125687.94;5055820;28;20029;-77
2022/09/24 07:57:57;;;;;;;17.55;11.55;;;14.70;99.90;;;-144.05;69.51;125687.94;5053938;28;20059;-79
2022/09/24 08:00:24;;;;;;;15.65;10.98;;;14.90;99.90;;;-144.05;69.02;125687.94;5056869;28;20456;-77
2022/09/24 08:02:52;;;;;;;19.95;12.18;;;15.00;99.90;;;-144.05;67.64;125687.94;5054783;28;20025;-77
2022/09/24 08:05:19;;;;;;;16.65;11.48;;;15.10;99.90;;;-144.05;67.20;125687.94;5055381;28;20091;-77
2022/09/24 08:07:56;;;;;;;15.80;11.35;;;15.30;99.90;;;-144.05;66.97;125687.94;5056768;28;20529;-79
2022/09/24 08:10:26;;;;;;;15.05;10.63;;;15.50;99.90;;;-144.05;65.22;125687.94;5058157;28;20037;-77
2022/09/24 08:12:52;;;;;;;15.45;9.77;;;15.60;99.90;;;-144.05;64.79;125687.94;5057088;28;20080;-77
2022/09/24 08:15:21;;;;;;;14.77;10.27;;;15.70;99.90;;;-144.05;64.34;125687.94;5059032;28;20036;-79
2022/09/24 08:17:47;;;;;;;15.55;10.73;;;15.70;99.90;;;-144.05;64.82;125687.94;5060105;28;20025;-79
2022/09/24 08:20:13;;;;;;;17.92;11.07;;;15.80;99.90;;;-144.05;65.06;125687.94;5054863;28;20027;-79
2022/09/24 08:22:39;;;;;;;14.68;10.05;;;15.80;99.90;;;-144.05;64.99;125687.94;5054429;28;20033;-77
2022/09/24 08:25:05;;;;;;;14.57;10.23;;;15.80;99.90;;;-144.05;65.12;125687.94;5057245;28;20028;-80
2022/09/24 08:27:31;;;;;;;13.88;9.75;;;15.90;99.90;;;-144.05;65.22;125687.94;5057841;28;20094;-79
2022/09/24 08:29:59;;;;;;;13.07;8.95;;;16.00;99.90;;;-144.05;64.68;125687.94;5055361;28;20037;-78
2022/09/24 08:32:28;;;;;;;14.40;9.65;;;16.00;99.90;;;-144.05;64.80;125687.94;5072661;28;20102;-79
2022/09/24 08:34:54;;;;;;;13.35;8.52;;;16.10;99.90;;;-144.05;64.29;125687.94;5058100;28;20029;-80
2022/09/24 08:37:19;;;;;;;15.05;8.82;;;16.20;99.90;;;-144.05;63.50;125687.94;5056945;28;20029;-80
2022/09/24 08:39:45;;;;;;;12.82;8.25;;;16.30;99.90;;;-144.05;63.21;125687.94;5056244;28;20028;-79
2022/09/24 08:42:42;;;;;;;13.13;7.97;;;16.30;99.90;;;-144.05;62.77;125687.94;5055496;28;20033;-76
2022/09/24 08:48:19;;;;;;;10.43;8.23;;;16.40;99.90;;;-144.05;62.91;125687.94;5058279;28;20174;-79
2022/09/24 08:51:07;;;;;;;10.10;7.15;;;16.40;99.90;;;-144.05;62.89;125687.94;5058552;28;20028;-79
2022/09/24 08:54:01;;;;;;;12.13;7.55;;;16.40;99.90;;;-144.05;62.86;125687.94;5059970;28;20029;-80
2022/09/24 08:56:36;;;;;;;11.45;8.05;;;16.50;99.90;;;-144.05;62.48;125687.94;5059488;28;20102;-80
2022/09/24 08:59:31;;;;;;;11.85;7.47;;;16.50;99.90;;;-144.05;62.52;125687.94;5056684;28;20033;-78
2022/09/24 09:02:41;;;;;;;11.40;6.82;;;16.50;99.90;;;-144.05;63.04;125687.94;5059021;28;20055;-76
2022/09/24 09:05:33;;;;;;;11.45;7.47;;;16.40;99.90;;;-144.05;62.84;125687.94;5055177;28;20036;-77
2022/09/24 09:08:29;;;;;;;10.02;7.50;;;16.30;99.90;;;-144.05;63.04;125687.94;5055457;28;20119;-76
2022/09/24 09:11:03;;;;;;;11.48;7.72;;;16.30;99.90;;;-144.05;62.16;125687.94;5055930;28;20033;-78
2022/09/24 09:13:45;;;;;;;10.50;7.40;;;16.20;99.90;;;-144.05;62.25;125687.94;5055185;28;20029;-77
2022/09/24 09:16:26;;;;;;;13.27;7.78;;;16.20;99.90;;;-144.05;61.49;125687.94;5055763;28;20057;-79
2022/09/24 09:19:07;;;;;;;8.52;6.07;;;16.30;99.90;;;-144.05;61.75;125687.94;5055583;28;20033;-77
2022/09/24 09:21:53;;;;;;;9.30;7.03;;;16.30;99.90;;;-144.05;60.78;125687.94;5057267;28;20025;-79
2022/09/24 09:24:54;;;;;;;11.00;7.15;;;16.40;99.90;;;-144.05;61.15;125687.94;5075428;28;20093;-78
2022/09/24 09:27:20;;;;;;;12.55;6.97;;;16.50;99.90;;;-144.05;60.35;125687.94;5059081;28;20033;-79
2022/09/24 09:29:58;;;;;;;11.55;8.20;;;16.60;99.90;;;-144.05;60.11;125687.94;5059855;28;20028;-78
2022/09/24 09:33:19;;;;;;;10.73;6.68;;;16.80;99.90;;;-144.05;59.91;125687.94;5058894;28;20021;-77
2022/09/24 09:36:14;;;;;;;12.65;7.00;;;17.00;99.90;;;-144.05;58.92;125687.94;5055536;28;20059;-77
2022/09/24 09:39:01;;;;;;;11.55;7.25;;;17.10;99.90;;;-144.05;58.50;125687.94;5056726;28;20029;-78
2022/09/24 09:42:28;;;;;;;16.67;8.48;;;17.10;99.90;;;-144.05;59.42;125687.94;5056538;28;20036;-78
2022/09/24 09:44:54;;;;;;;18.65;8.85;;;17.00;99.90;;;-144.05;59.49;125687.94;5055537;28;20029;-79
2022/09/24 09:47:48;;;;;;;13.30;8.20;;;16.90;99.90;;;-144.05;59.08;125687.94;5059536;28;20040;-79
2022/09/24 09:50:41;;;;;;;15.88;8.43;;;16.80;99.90;;;-144.05;59.75;125687.94;5059250;28;20086;-79
2022/09/24 09:53:21;;;;;;;13.02;8.25;;;16.80;99.90;;;-144.05;59.67;125687.94;5059923;28;20079;-79
2022/09/24 09:56:06;;;;;;;10.70;7.65;;;16.80;99.90;;;-144.05;59.63;125687.94;5060708;28;20552;-81
2022/09/24 09:58:43;;;;;;;13.63;7.57;;;16.80;99.90;;;-144.05;59.48;125687.94;5060105;28;20067;-83
2022/09/24 10:01:16;;;;;;;10.30;7.22;;;16.90;99.90;;;-144.05;59.03;125687.94;5059568;28;20120;-77
2022/09/24 10:03:45;;;;;;;16.25;9.02;;;16.90;99.90;;;-144.05;58.58;125687.94;5060060;28;20033;-78
2022/09/24 10:06:25;;;;;;;10.35;8.02;;;16.90;99.90;;;-144.05;58.33;125687.94;5062735;28;20519;-78
2022/09/24 10:08:51;;;;;;;10.65;7.07;;;17.00;99.90;;;-144.05;58.51;125687.94;5059256;28;20036;-78
2022/09/24 10:11:18;;;;;;;11.52;7.82;;;17.20;99.90;;;-144.05;57.79;125687.94;5061581;28;20029;-76
2022/09/24 10:13:44;;;;;;;10.93;7.20;;;17.30;99.90;;;-144.05;57.59;125687.94;5060558;28;20032;-77
2022/09/24 10:16:16;;;;;;;12.52;9.13;;;17.40;99.90;;;-144.05;56.08;125687.94;5072335;28;20025;-78